sensor_id;sensor_type;location;lat;lon;timestamp;temperature;humidity
29321;DHT22;16323;51.130;6.612;2023-02-14T02:53:37;16.90;77.60
29321;DHT22;16323;51.130;6.612;2023-02-14T02:56:39;17.30;78.90
29321;DHT22;16323;51.130;6.612;2023-02-14T03:02:54;14.20;74.30
29321;DHT22;16323;51.130;6.612;2023-02-14T03:16:07;16.30;75.00
29321;DHT22;16323;51.130;6.612;2023-02-14T03:18:52;16.20;75.40
29321;DHT22;16323;51.130;6.612;2023-02-14T03:21:48;16.20;75.10
29321;DHT22;16323;51.130;6.612;2023-02-14T03:24:36;16.20;76.40
29321;DHT22;16323;51.130;6.612;2023-02-14T03:27:13;16.00;75.70
29321;DHT22;16323;51.130;6.612;2023-02-14T03:29:48;16.40;75.40
29321;DHT22;16323;51.130;6.612;2023-02-14T03:32:26;15.90;74.90
29321;DHT22;16323;51.130;6.612;2023-02-14T03:35:06;16.60;75.90
29321;DHT22;16323;51.130;6.612;2023-02-14T03:37:46;16.00;75.50
29321;DHT22;16323;51.130;6.612;2023-02-14T04:34:47;16.00;72.60
29321;DHT22;16323;51.130;6.612;2023-02-14T04:37:16;16.30;75.40
29321;DHT22;16323;51.130;6.612;2023-02-14T04:39:46;16.10;76.00
29321;DHT22;16323;51.130;6.612;2023-02-14T04:42:14;16.50;73.60
29321;DHT22;16323;51.130;6.612;2023-02-14T04:44:41;18.20;75.90
29321;DHT22;16323;51.130;6.612;2023-02-14T04:47:08;15.90;76.10
29321;DHT22;16323;51.130;6.612;2023-02-14T04:49:35;15.90;74.70
29321;DHT22;16323;51.130;6.612;2023-02-14T04:52:06;17.40;73.50
29321;DHT22;16323;51.130;6.612;2023-02-14T04:54:33;15.90;71.40
29321;DHT22;16323;51.130;6.612;2023-02-14T04:57:00;15.90;71.70
29321;DHT22;16323;51.130;6.612;2023-02-14T04:59:27;15.90;70.90
29321;DHT22;16323;51.130;6.612;2023-02-14T05:01:54;15.80;69.60
29321;DHT22;16323;51.130;6.612;2023-02-14T05:04:20;15.90;70.20
29321;DHT22;16323;51.130;6.612;2023-02-14T05:06:47;15.80;68.30
29321;DHT22;16323;51.130;6.612;2023-02-14T05:09:16;15.80;67.50
29321;DHT22;16323;51.130;6.612;2023-02-14T05:11:43;15.80;67.50
29321;DHT22;16323;51.130;6.612;2023-02-14T05:14:09;15.80;66.70
29321;DHT22;16323;51.130;6.612;2023-02-14T05:16:38;15.80;66.60
29321;DHT22;16323;51.130;6.612;2023-02-14T05:19:05;15.80;66.40
29321;DHT22;16323;51.130;6.612;2023-02-14T05:21:31;15.80;67.60
29321;DHT22;16323;51.130;6.612;2023-02-14T05:23:58;15.80;67.70
29321;DHT22;16323;51.130;6.612;2023-02-14T05:26:26;15.80;67.80
29321;DHT22;16323;51.130;6.612;2023-02-14T05:28:53;15.80;67.90
29321;DHT22;16323;51.130;6.612;2023-02-14T05:31:21;15.80;68.40
29321;DHT22;16323;51.130;6.612;2023-02-14T05:33:48;15.80;68.30
29321;DHT22;16323;51.130;6.612;2023-02-14T05:36:15;15.80;68.40
29321;DHT22;16323;51.130;6.612;2023-02-14T05:38:41;15.80;67.80
29321;DHT22;16323;51.130;6.612;2023-02-14T05:41:08;15.80;68.00
29321;DHT22;16323;51.130;6.612;2023-02-14T05:43:36;15.80;66.80
29321;DHT22;16323;51.130;6.612;2023-02-14T05:46:03;15.80;66.60
29321;DHT22;16323;51.130;6.612;2023-02-14T05:48:30;15.80;65.90
29321;DHT22;16323;51.130;6.612;2023-02-14T05:51:02;15.80;65.20
29321;DHT22;16323;51.130;6.612;2023-02-14T05:53:29;15.80;65.20
29321;DHT22;16323;51.130;6.612;2023-02-14T05:55:56;15.80;65.00
29321;DHT22;16323;51.130;6.612;2023-02-14T05:58:23;15.80;64.40
29321;DHT22;16323;51.130;6.612;2023-02-14T06:00:51;15.80;64.30
29321;DHT22;16323;51.130;6.612;2023-02-14T06:03:18;15.70;64.20
29321;DHT22;16323;51.130;6.612;2023-02-14T06:05:45;15.70;64.20
29321;DHT22;16323;51.130;6.612;2023-02-14T06:08:24;15.70;65.10
29321;DHT22;16323;51.130;6.612;2023-02-14T16:28:50;16.80;64.80
